← Previous June 17, 2024 8:34 PM Next →

FTUS43 KFSD 172324
TAFHON
TAF
KHON 172324Z 1800/1824 09014KT P6SM SCT025 OVC050
     FM180300 12013G21KT P6SM BKN060 WS020/13050KT
     FM180600 15016G24KT P6SM BKN060 WS020/19050KT
     FM181400 24013G20KT P6SM BKN025
     FM181800 29016G23KT P6SM BKN035=